Latest Coastal Weather Observations for Geraldton Airport

IDW60701

Issued at 5:25 am WST Wednesday 22 October 2014 (issued every 10 minutes, with the page automatically refreshed every 10 minutes)

About coastal observations | Map of coastal stations | Coastal observations for WA | Marine services | Other Formats
Station Details ID: 008315 Name: GERALDTON AIRPORT Lat: -28.80 Lon: 114.70 Height: 29.7 m
Data from the previous 72 hours. | See also: Recent months at Geraldton Airport
Date/Time
WST
Temp

°C
Wind Pressure Rain
since 9am
mm
Weather Cloud Vis
km
Sea
Height
m
Swell
Dir
 
Speed
knots
Gust
knots
hPa Trend Height
m
Period
s
Dir
22/05:05am 19.2 W 11 15 1014.2 - 0.0 - Partly cloudy 10 - - - -
22/05:00am 19.1 WSW 10 15 1014.1 - 0.0 - Partly cloudy 10 - - - -
22/04:52am 18.8 W 10 13 1014.1 - 0.0 - Partly cloudy 10 - - - -
22/04:30am 15.3 NW 5 7 1013.9 - 0.0 - Partly cloudy 10 - - - -
22/04:00am 14.1 NNW 6 8 1013.9 - 0.0 - - 10 - - - -
22/03:30am 13.6 N 6 7 1013.7 - 0.0 - - 10 - - - -
22/03:00am 13.6 N 7 8 1013.1 - 0.0 - - 10 - - - -
22/02:30am 13.1 NNE 6 7 1013.4 - 0.0 - - 10 - - - -
22/02:00am 14.0 NNW 7 8 1013.8 - 0.0 - - 10 - - - -
22/01:30am 13.6 NNW 5 6 1013.9 - 0.0 - - 10 - - - -
22/01:00am 12.8 NNW 3 4 1013.8 - 0.0 - - 10 - - - -
22/12:30am 14.0 NW 4 4 1014.1 - 0.0 - - 10 - - - -
22/12:00am 14.5 NW 5 7 1014.6 - 0.0 - - 10 - - - -
 
Date/Time
WST
Temp

°C
Wind Pressure Rain
since 9am
mm
Weather Cloud Vis
km
Sea
Height
m
Swell
Dir
 
Speed
knots
Gust
knots
hPa Trend Height
m
Period
s
Dir
21/11:30pm 13.8 NW 4 5 1015.0 - 0.0 - - 10 - - - -
21/11:00pm 14.6 CALM 0 0 1015.3 - 0.0 - - 10 - - - -
21/10:30pm 14.1 WNW 2 3 1015.9 - 0.0 - - 10 - - - -
21/10:00pm 15.1 CALM 0 0 1016.3 - 0.0 - - 10 - - - -
21/09:30pm 15.4 CALM 0 1 1016.5 - 0.0 - - 10 - - - -
21/09:00pm 16.8 SSE 5 5 1016.5 F 0.0 Haze Clear 20 - - - -
21/08:30pm 18.1 SSE 6 8 1016.6 - 0.0 - - 10 - - - -
21/08:00pm 18.8 S 8 11 1016.9 - 0.0 - - 10 - - - -
21/07:30pm 18.8 S 7 9 1016.8 - 0.0 - - 10 - - - -
21/07:00pm 19.4 SSE 10 14 1016.4 - 0.0 - - 10 - - - -
21/06:30pm 20.1 SSE 11 17 1016.4 - 0.0 - - 10 - - - -
21/06:00pm 21.0 S 15 20 1016.3 F 0.0 Fine Mostly clear 30 - - - -
21/05:30pm 21.6 S 17 21 1016.4 - 0.0 - - 10 - - - -
21/05:00pm 22.4 S 15 20 1016.3 - 0.0 - - 10 - - - -
21/04:30pm 22.8 S 16 21 1016.5 - 0.0 - - 10 - - - -
21/04:00pm 23.5 S 15 19 1016.5 - 0.0 - - 10 - - - -
21/03:30pm 23.7 S 16 20 1016.5 - 0.0 - - 10 - - - -
21/03:00pm 24.5 S 14 19 1016.6 F 0.0 Fine Mostly clear 30 - - - -
21/02:30pm 24.9 SSW 15 18 1016.9 - 0.0 - - 10 - - - -
21/02:00pm 25.4 SSW 13 18 1017.4 - 0.0 - - 10 - - - -
21/01:30pm 25.0 SSW 15 19 1017.6 - 0.0 - - 10 - - - -
21/01:00pm 24.4 SSW 15 18 1018.0 - 0.0 - - 10 - - - -
21/12:30pm 25.0 SSW 16 20 1018.4 - 0.0 - - 10 - - - -
21/12:00pm 26.7 S 10 14 1018.4 F 0.0 Fine Mostly clear 30 - - - -
21/11:30am 26.9 S 9 15 1018.5 - 0.0 - - 10 - - - -
21/11:00am 25.0 SW 10 13 1019.3 - 0.0 - - 10 - - - -
21/10:30am 25.4 E 6 10 1019.8 - 0.0 - - 10 - - - -
21/10:00am 24.3 ESE 7 14 1020.1 - 0.0 - - 10 - - - -
21/09:30am 23.2 SE 7 11 1020.5 - 0.0 - - 10 - - - -
21/09:00am 22.0 ESE 8 11 1020.5 S 0.0 Fine Clear 30 - - - -
21/08:30am 21.0 ESE 7 11 1020.7 - 0.0 - - 10 - - - -
21/08:00am 19.1 ESE 9 13 1020.7 - 0.0 - - 10 - - - -
21/07:30am 17.5 E 10 14 1020.7 - 0.0 - - 10 - - - -
21/07:00am 15.8 ESE 6 11 1020.5 - 0.0 - - 10 - - - -
21/06:30am 12.8 S 4 5 1020.0 - 0.0 - - 10 - - - -
21/06:00am 10.9 S 4 6 1019.7 F 0.0 Fine Clear 30 - - - -
21/05:30am 9.8 ESE 3 5 1019.4 - 0.0 - - 10 - - - -
21/05:00am 9.7 SE 1 3 1019.5 - 0.0 - - 10 - - - -
21/04:30am 9.3 SE 3 4 1019.2 - 0.0 - - 10 - - - -
21/04:00am 10.0 ESE 4 5 1019.4 - 0.0 - - 10 - - - -
21/03:30am 10.1 E 3 4 1019.5 - 0.0 - - 10 - - - -
21/03:00am 10.3 E 4 4 1019.4 - 0.0 - - 10 - - - -
21/02:30am 9.8 SE 4 4 1019.4 - 0.0 - - 10 - - - -
21/02:00am 11.0 SSE 5 6 1019.4 - 0.0 - - 10 - - - -
21/01:30am 11.2 SSE 6 6 1019.4 - 0.0 - - 10 - - - -
21/01:00am 11.4 SE 5 6 1019.6 - 0.0 - - 10 - - - -
21/12:30am 11.7 SSE 6 7 1019.6 - 0.0 - - 10 - - - -
21/12:00am 12.0 SE 6 7 1019.8 - 0.0 - - 10 - - - -
 
Date/Time
WST
Temp

°C
Wind Pressure Rain
since 9am
mm
Weather Cloud Vis
km
Sea
Height
m
Swell
Dir
 
Speed
knots
Gust
knots
hPa Trend Height
m
Period
s
Dir
20/11:30pm 12.3 SSE 6 7 1019.8 - 0.0 - - 10 - - - -
20/11:00pm 12.5 SSE 7 7 1019.9 - 0.0 - - 10 - - - -
20/10:30pm 13.2 SSE 6 7 1020.0 - 0.0 - - 10 - - - -
20/10:00pm 13.6 SE 5 7 1020.2 - 0.0 - - 10 - - - -
20/09:30pm 13.9 SE 6 6 1020.3 - 0.0 - - 10 - - - -
20/09:00pm 14.2 SE 5 6 1020.3 F 0.0 Fine Mostly clear 30 - - - -
20/08:30pm 15.5 SSE 7 8 1020.1 - 0.0 - Mostly clear 10 - - - -
20/08:00pm 16.5 SSE 6 8 1020.0 - 0.0 - Mostly clear 10 - - - -
20/07:30pm 17.5 S 7 9 1019.9 - 0.0 - Mostly clear 10 - - - -
20/07:00pm 17.9 S 9 11 1019.6 - 0.0 - Mostly clear 10 - - - -
20/06:30pm 18.6 S 11 16 1019.4 - 0.0 - Mostly clear 10 - - - -
20/06:00pm 19.6 S 13 18 1019.1 R 0.0 Fine Mostly clear 40 - - - -
20/05:30pm 20.2 S 14 18 1018.9 - 0.0 - Mostly clear 10 - - - -
20/05:00pm 21.2 S 13 19 1018.7 - 0.0 - Mostly clear 10 - - - -
20/04:30pm 21.3 SSW 15 19 1018.7 - 0.0 - Mostly clear 10 - - - -
20/04:00pm 22.1 S 13 18 1018.3 - 0.0 - Mostly clear 10 - - - -
20/03:30pm 22.7 S 12 17 1018.1 - 0.0 - Mostly clear 10 - - - -
20/03:00pm 22.3 SSW 14 19 1018.0 R 0.0 Fine Mostly clear 40 - - - -
20/02:30pm 23.0 SSW 13 19 1018.0 - 0.0 - Mostly clear 10 - - - -
20/02:00pm 22.6 S 13 17 1018.1 - 0.0 - Mostly clear 10 - - - -
20/01:30pm 22.8 SSW 13 18 1018.2 - 0.0 - Mostly clear 10 - - - -
20/01:00pm 23.3 SSW 14 20 1018.4 - 0.0 - Mostly clear 10 - - - -
20/12:30pm 23.4 SW 13 17 1018.4 - 0.0 - Mostly clear 10 - - - -
20/12:00pm 22.8 SSW 11 18 1018.7 R 0.0 Fine Mostly clear 30 - - - -
20/11:30am 21.8 S 11 18 1018.8 - 0.0 - Partly cloudy 10 - - - -
20/11:00am 23.6 NE 5 11 1018.8 - 0.0 - Partly cloudy 10 - - - -
20/10:30am 22.2 S 10 15 1018.9 - 0.0 - Partly cloudy 10 - - - -
20/10:00am 22.4 S 11 14 1019.1 - 0.0 - Partly cloudy 10 - - - -
20/09:30am 21.2 SSE 12 14 1019.3 - 0.0 - Partly cloudy 10 - - - -
20/09:00am 20.3 SE 9 13 1019.3 R 0.0 Fine Partly cloudy 30 - - - -
20/08:30am 19.5 SE 10 16 1019.3 - 0.0 - Mostly clear 10 - - - -
20/08:00am 18.8 ESE 9 12 1018.9 - 0.0 - Mostly clear 10 - - - -
20/07:30am 17.9 E 10 14 1018.7 - 0.0 - Mostly clear 10 - - - -
20/07:00am 16.7 ENE 4 5 1018.4 - 0.0 - Mostly clear 10 - - - -
20/06:30am 15.1 NNE 4 6 1018.0 - 0.0 - Mostly clear 10 - - - -
20/06:00am 13.8 NE 7 8 1017.4 R 0.0 Distant precip. Partly cloudy 30 - - - -
20/05:30am 13.8 NNE 7 9 1017.2 - 0.0 - Partly cloudy 10 - - - -
20/05:00am 12.7 NNE 6 9 1016.7 - 0.0 - Partly cloudy 10 - - - -
20/04:30am 13.7 NE 6 7 1016.3 - 0.0 - Partly cloudy 10 - - - -
20/04:00am 13.7 NNE 6 7 1016.2 - 0.0 - Cloudy 10 - - - -
20/03:30am 14.5 NNE 4 4 1015.8 - 0.0 - Cloudy 10 - - - -
20/03:00am 13.8 E 2 4 1015.6 - 0.0 - Mostly cloudy 10 - - - -
20/02:30am 12.7 ENE 5 7 1015.7 - 0.0 - Partly cloudy 10 - - - -
20/02:00am 11.7 NE 3 4 1015.5 - 0.0 - - 10 - - - -
20/01:30am 12.6 ENE 1 4 1015.6 - 0.0 - Partly cloudy 10 - - - -
20/01:00am 12.2 CALM 0 3 1015.8 - 0.0 - - 10 - - - -
20/12:30am 13.2 CALM 0 0 1015.8 - 0.0 - Partly cloudy 10 - - - -
20/12:00am 13.7 N 3 4 1015.7 - 0.0 - Mostly clear 10 - - - -
 
Date/Time
WST
Temp

°C
Wind Pressure Rain
since 9am
mm
Weather Cloud Vis
km
Sea
Height
m
Swell
Dir
 
Speed
knots
Gust
knots
hPa Trend Height
m
Period
s
Dir
19/11:30pm 15.1 ESE 3 4 1015.8 - 0.0 - Partly cloudy 10 - - - -
19/11:00pm 15.7 SE 4 4 1016.1 - 0.0 - Partly cloudy 10 - - - -
19/10:30pm 16.5 S 5 7 1016.3 - 0.0 - Partly cloudy 10 - - - -
19/10:00pm 16.0 S 5 6 1016.3 - 0.0 - - 10 - - - -
19/09:30pm 16.9 SSW 5 7 1016.7 - 0.0 - Partly cloudy 10 - - - -
19/09:00pm 16.0 SSW 6 8 1016.3 R 0.0 Fine Mostly cloudy 40 - - - -
19/08:30pm 16.4 S 6 6 1016.0 - 0.0 - Partly cloudy 10 - - - -
19/08:00pm 16.8 S 6 7 1015.8 - 0.0 - Partly cloudy 10 - - - -
19/07:30pm 17.0 SSW 7 8 1015.5 - 0.0 - Mostly clear 10 - - - -
19/07:00pm 17.6 S 7 10 1015.1 - 0.0 - Mostly clear 10 - - - -
19/06:30pm 18.6 SSW 9 11 1015.0 - 0.0 - Mostly clear 10 - - - -
19/06:00pm 19.4 SSW 12 15 1014.3 R 0.0 Fine Mostly clear 40 - - - -
19/05:30pm 20.3 SSW 12 17 1014.0 - 0.0 - Mostly clear 10 - - - -
19/05:00pm 20.5 S 13 18 1013.8 - 0.0 - Mostly clear 10 - - - -
19/04:30pm 21.1 S 14 18 1013.5 - 0.0 - Mostly clear 10 - - - -
19/04:00pm 21.7 SSW 15 22 1013.3 - 0.0 - Partly cloudy 10 - - - -
19/03:30pm 22.3 SSW 13 19 1012.9 - 0.0 - Partly cloudy 10 - - - -
19/03:00pm 22.8 SSW 14 18 1012.6 R 0.0 Fine Mostly cloudy 40 - - - -
19/02:30pm 21.8 WSW 13 18 1012.8 - 0.0 - Mostly clear 10 - - - -
19/02:00pm 24.4 SW 15 19 1012.7 - 0.0 - Partly cloudy 10 - - - -
19/01:30pm 22.9 W 14 18 1012.9 - 0.0 - Partly cloudy 10 - - - -
19/01:00pm 23.0 WSW 15 20 1012.8 - 0.0 - Mostly clear 10 - - - -
19/12:30pm 23.4 WSW 14 19 1012.7 - 0.0 - Mostly clear 10 - - - -
19/12:00pm 23.5 WSW 13 18 1012.9 R 0.0 Distant precip. Partly cloudy 30 - - - -
19/11:30am 23.3 WSW 14 18 1013.2 - 0.0 - Mostly clear 10 - - - -
19/11:00am 23.5 W 12 17 1013.5 - 0.0 - Mostly clear 10 - - - -
19/10:30am 23.4 WSW 12 17 1013.6 - 0.0 - Partly cloudy 10 - - - -
19/10:16am 23.3 WNW 9 13 1013.6 - 0.0 - Mostly clear 10 - - - -
19/10:00am 23.0 WNW 7 11 1013.6 - 0.0 Thunderstorm Mostly clear 9 - - - -
19/09:55am 22.7 WNW 8 11 1013.6 - 0.0 Thunderstorm Mostly clear 9 - - - -
19/09:30am 21.2 WSW 9 11 1013.5 - 0.0 - Mostly clear 10 - - - -
19/09:00am 21.0 SE 3 5 1013.4 R 0.0 Fine Partly cloudy 30 - - - -
19/08:30am 20.7 NNE 7 9 1013.4 - 0.0 - Partly cloudy 10 - - - -
19/08:00am 19.3 NNE 9 11 1013.3 - 0.0 - Mostly clear 10 - - - -
19/07:30am 17.2 N 10 12 1013.0 - 0.0 - Mostly clear 10 - - - -
19/07:00am 15.2 NNE 11 14 1012.9 - 0.0 - Mostly clear 10 - - - -
19/06:30am 14.5 NNE 9 13 1012.9 - 0.0 - Mostly clear 10 - - - -
19/06:00am 13.2 NNE 8 10 1012.5 F 0.0 Distant precip. Mostly clear 30 - - - -
19/05:30am 12.9 NNE 8 11 1012.5 - 0.0 - - 10 - - - -

Other Formats:

Comma delimited format used in spreadsheet applications
http://www.bom.gov.au/fwo/IDW60701/IDW60701.94403.axf

JavaScript Object Notation format (JSON) in row-major order
http://www.bom.gov.au/fwo/IDW60701/IDW60701.94403.json